Time;durP1;ratioP1;P1;durP2;ratioP2;P2;SDS_P1;SDS_P2;PMS_P1;PMS_P2;Temp;Humidity;BMP_temperature;BMP_pressure;BME280_temperature;BME280_humidity;BME280_pressure;Samples;Min_cycle;Max_cycle;Signal;HPM_P1;HPM_P2
2022/12/02 00:01:10;;;;;;;80.75;31.20;;;;;;;;;;5116629;27;20046;-63
2022/12/02 00:03:38;;;;;;;75.55;30.52;;;;;;;;;;5115703;27;20079;-63
2022/12/02 00:06:05;;;;;;;73.13;28.73;;;;;;;;;;5121847;27;20061;-63
2022/12/02 00:08:35;;;;;;;73.63;29.45;;;;;;;;;;5120668;27;20134;-64
2022/12/02 00:11:03;;;;;;;75.10;29.65;;;;;;;;;;5121692;27;20091;-64
2022/12/02 00:13:32;;;;;;;68.95;28.30;;;;;;;;;;5119472;27;20717;-65
2022/12/02 00:16:00;;;;;;;65.38;28.42;;;;;;;;;;5114595;27;20450;-63
2022/12/02 00:18:29;;;;;;;77.70;28.92;;;;;;;;;;5118126;27;20051;-63
2022/12/02 00:20:56;;;;;;;72.68;27.15;;;;;;;;;;5113085;27;20183;-63
2022/12/02 00:23:23;;;;;;;71.32;28.45;;;;;;;;;;5118371;27;20050;-63
2022/12/02 00:25:52;;;;;;;60.80;26.40;;;;;;;;;;5120929;27;20732;-63
2022/12/02 00:28:19;;;;;;;65.63;27.55;;;;;;;;;;5118289;27;20492;-64
2022/12/02 00:30:46;;;;;;;71.40;27.88;;;;;;;;;;5118488;27;20557;-63
2022/12/02 00:33:17;;;;;;;69.88;28.15;;;;;;;;;;5118088;27;20050;-62
2022/12/02 00:35:45;;;;;;;58.33;25.92;;;;;;;;;;5110654;27;20068;-63
2022/12/02 00:38:12;;;;;;;75.55;28.17;;;;;;;;;;5111330;27;20047;-63
2022/12/02 00:40:40;;;;;;;66.40;28.48;;;;;;;;;;5119571;27;20074;-63
2022/12/02 00:48:37;;;;;;;61.95;25.38;;;;;;;;;;5121621;27;20546;-63
2022/12/02 00:51:05;;;;;;;60.30;26.45;;;;;;;;;;5120084;27;20474;-63
2022/12/02 00:53:33;;;;;;;63.58;26.92;;;;;;;;;;5108847;27;20072;-62
2022/12/02 00:56:00;;;;;;;67.38;27.83;;;;;;;;;;5117837;27;20599;-63
2022/12/02 00:58:27;;;;;;;64.00;27.05;;;;;;;;;;5128422;27;20054;-63
2022/12/02 01:00:55;;;;;;;62.63;26.15;;;;;;;;;;5112000;27;20632;-63
2022/12/02 01:03:22;;;;;;;64.80;26.15;;;;;;;;;;5114651;27;20062;-63
2022/12/02 01:05:49;;;;;;;64.82;26.40;;;;;;;;;;5134869;27;20676;-62
2022/12/02 01:08:18;;;;;;;63.17;25.77;;;;;;;;;;5115416;27;20054;-64
2022/12/02 01:10:45;;;;;;;57.38;25.52;;;;;;;;;;5112615;27;20052;-63
2022/12/02 01:13:12;;;;;;;60.80;26.55;;;;;;;;;;5097579;27;20054;-63
2022/12/02 01:15:39;;;;;;;61.17;25.48;;;;;;;;;;5121528;27;20051;-63
2022/12/02 01:18:07;;;;;;;56.45;24.83;;;;;;;;;;5104192;27;20086;-63
2022/12/02 01:20:34;;;;;;;61.63;25.13;;;;;;;;;;5117105;27;20191;-63
2022/12/02 01:23:01;;;;;;;65.95;24.85;;;;;;;;;;5115261;27;20534;-63
2022/12/02 01:25:30;;;;;;;60.53;26.23;;;;;;;;;;5120517;27;20047;-64
2022/12/02 01:27:57;;;;;;;58.38;26.20;;;;;;;;;;5114102;27;20058;-63
2022/12/02 01:30:24;;;;;;;58.83;26.60;;;;;;;;;;5119463;27;20045;-63
2022/12/02 01:32:51;;;;;;;55.22;26.17;;;;;;;;;;5114914;27;20058;-64
2022/12/02 01:35:19;;;;;;;60.17;25.77;;;;;;;;;;5117581;27;20160;-64
2022/12/02 01:37:46;;;;;;;55.78;24.45;;;;;;;;;;5117039;27;20405;-64
2022/12/02 01:40:14;;;;;;;62.28;26.02;;;;;;;;;;5112979;27;20043;-64
2022/12/02 01:42:43;;;;;;;56.17;25.23;;;;;;;;;;5116122;27;20047;-64
2022/12/02 01:45:11;;;;;;;55.20;25.17;;;;;;;;;;5115347;27;20485;-63
2022/12/02 01:47:39;;;;;;;57.28;24.67;;;;;;;;;;5113454;27;20051;-64
2022/12/02 01:50:07;;;;;;;54.45;25.05;;;;;;;;;;5111689;27;21611;-63
2022/12/02 01:52:35;;;;;;;56.58;25.50;;;;;;;;;;5120917;27;20059;-64
2022/12/02 01:55:02;;;;;;;61.83;25.95;;;;;;;;;;5123144;27;20049;-63
2022/12/02 01:57:31;;;;;;;60.00;25.58;;;;;;;;;;5096441;27;20052;-64
2022/12/02 02:00:00;;;;;;;54.90;24.73;;;;;;;;;;5124996;27;20047;-64
2022/12/02 02:02:28;;;;;;;65.97;26.15;;;;;;;;;;5119354;27;20077;-64
2022/12/02 02:04:56;;;;;;;55.08;24.92;;;;;;;;;;5106505;27;20537;-64
2022/12/02 02:07:24;;;;;;;61.50;26.38;;;;;;;;;;5120166;27;20101;-63
2022/12/02 02:09:51;;;;;;;55.42;25.75;;;;;;;;;;5112929;27;20046;-64
2022/12/02 02:12:18;;;;;;;57.38;25.75;;;;;;;;;;5122895;27;20723;-63
2022/12/02 02:14:45;;;;;;;56.17;24.45;;;;;;;;;;5122307;27;20170;-64
2022/12/02 02:17:14;;;;;;;55.10;25.60;;;;;;;;;;5118871;27;20066;-63
2022/12/02 02:19:43;;;;;;;55.42;24.75;;;;;;;;;;5121362;27;20108;-64
2022/12/02 02:22:12;;;;;;;61.03;26.25;;;;;;;;;;5112586;27;20075;-64
2022/12/02 02:24:40;;;;;;;58.60;25.27;;;;;;;;;;5117499;27;20139;-64
2022/12/02 02:27:07;;;;;;;58.08;25.33;;;;;;;;;;5125688;27;20070;-64
2022/12/02 02:29:35;;;;;;;59.30;25.67;;;;;;;;;;5112017;27;20051;-63
2022/12/02 02:32:02;;;;;;;61.30;25.35;;;;;;;;;;5116802;27;20059;-63
2022/12/02 02:34:29;;;;;;;61.72;26.30;;;;;;;;;;5113524;27;20522;-64
2022/12/02 02:36:57;;;;;;;57.63;25.52;;;;;;;;;;5112333;27;20409;-64
2022/12/02 02:39:24;;;;;;;64.32;25.85;;;;;;;;;;5113417;27;20043;-63
2022/12/02 02:41:53;;;;;;;60.10;24.55;;;;;;;;;;5125698;27;20067;-65
2022/12/02 02:44:21;;;;;;;54.50;25.60;;;;;;;;;;5127792;27;20047;-63
2022/12/02 02:46:48;;;;;;;55.60;23.75;;;;;;;;;;5121507;27;20580;-64
2022/12/02 02:49:15;;;;;;;56.03;23.58;;;;;;;;;;5113026;27;20039;-64
2022/12/02 02:51:43;;;;;;;53.85;24.58;;;;;;;;;;5118823;27;20058;-63
2022/12/02 02:54:10;;;;;;;55.35;23.75;;;;;;;;;;5122560;27;20051;-63
2022/12/02 02:56:37;;;;;;;56.53;24.60;;;;;;;;;;5118839;27;20066;-63
2022/12/02 02:59:06;;;;;;;57.10;24.85;;;;;;;;;;5114438;27;20055;-63
2022/12/02 03:01:35;;;;;;;59.63;25.17;;;;;;;;;;5122975;27;20039;-62
2022/12/02 03:04:04;;;;;;;51.47;22.83;;;;;;;;;;5097056;27;20051;-64
2022/12/02 03:06:32;;;;;;;56.08;23.38;;;;;;;;;;5116057;27;20138;-63
2022/12/02 03:09:00;;;;;;;48.67;21.75;;;;;;;;;;5090894;27;20123;-64
2022/12/02 03:11:28;;;;;;;51.80;22.25;;;;;;;;;;5117053;27;20410;-64
2022/12/02 03:13:56;;;;;;;48.53;21.25;;;;;;;;;;5122832;27;20050;-65
2022/12/02 03:16:26;;;;;;;48.75;21.85;;;;;;;;;;5120566;27;20053;-63
2022/12/02 03:18:54;;;;;;;53.15;21.70;;;;;;;;;;5112059;27;20074;-64
2022/12/02 03:21:21;;;;;;;52.03;22.17;;;;;;;;;;5111041;27;20047;-64
2022/12/02 03:23:50;;;;;;;50.58;21.52;;;;;;;;;;5113907;27;20632;-65
2022/12/02 03:26:17;;;;;;;52.90;23.67;;;;;;;;;;5110170;27;20055;-63
2022/12/02 03:28:45;;;;;;;51.72;22.40;;;;;;;;;;5123542;27;20124;-62
2022/12/02 03:31:13;;;;;;;48.53;20.63;;;;;;;;;;5126005;27;20717;-63
2022/12/02 03:33:42;;;;;;;49.80;21.45;;;;;;;;;;5112416;27;20063;-63
2022/12/02 03:36:10;;;;;;;46.63;20.13;;;;;;;;;;5112583;27;20413;-64
2022/12/02 03:38:37;;;;;;;50.30;20.92;;;;;;;;;;5113543;27;20058;-64
2022/12/02 03:41:06;;;;;;;52.13;22.60;;;;;;;;;;5111717;27;20062;-64
2022/12/02 03:43:33;;;;;;;49.38;21.58;;;;;;;;;;5114918;27;20051;-64
2022/12/02 03:46:01;;;;;;;49.95;21.60;;;;;;;;;;5111946;27;20055;-63
2022/12/02 03:48:29;;;;;;;45.60;20.70;;;;;;;;;;5116083;27;20059;-64
2022/12/02 03:50:58;;;;;;;48.63;20.95;;;;;;;;;;5114083;27;20050;-65
2022/12/02 03:53:27;;;;;;;54.40;22.52;;;;;;;;;;5114574;27;20047;-63
2022/12/02 03:55:55;;;;;;;48.05;21.23;;;;;;;;;;5110820;27;20039;-64
2022/12/02 03:58:32;;;;;;;50.38;21.83;;;;;;;;;;5110203;27;20066;-65
2022/12/02 04:00:59;;;;;;;48.78;20.50;;;;;;;;;;5116270;27;20047;-63
2022/12/02 04:03:26;;;;;;;50.90;21.35;;;;;;;;;;5119031;27;20058;-64
2022/12/02 04:05:54;;;;;;;55.42;23.38;;;;;;;;;;5108333;27;20188;-63
2022/12/02 04:08:23;;;;;;;54.20;23.50;;;;;;;;;;5119276;27;20070;-64
2022/12/02 04:10:50;;;;;;;52.03;22.80;;;;;;;;;;5111989;27;20055;-64
2022/12/02 04:13:17;;;;;;;58.65;24.45;;;;;;;;;;5113301;27;20051;-66
2022/12/02 04:15:44;;;;;;;54.95;22.65;;;;;;;;;;5117962;27;20043;-63
2022/12/02 04:18:11;;;;;;;55.30;23.50;;;;;;;;;;5111263;27;20048;-63
2022/12/02 04:20:39;;;;;;;55.38;24.05;;;;;;;;;;5116513;27;20493;-63
2022/12/02 04:23:06;;;;;;;56.65;23.55;;;;;;;;;;5113495;27;20074;-64
2022/12/02 04:25:34;;;;;;;56.17;23.67;;;;;;;;;;5111431;27;20046;-64
2022/12/02 04:28:02;;;;;;;61.05;23.30;;;;;;;;;;5121312;27;20126;-64
2022/12/02 04:30:29;;;;;;;57.85;23.63;;;;;;;;;;5124097;27;20047;-64
2022/12/02 04:32:56;;;;;;;54.28;22.13;;;;;;;;;;5105947;27;20054;-64
2022/12/02 04:35:23;;;;;;;51.63;22.27;;;;;;;;;;5120437;27;20402;-64
2022/12/02 04:37:52;;;;;;;61.42;24.08;;;;;;;;;;5113182;27;20052;-63
2022/12/02 04:40:20;;;;;;;57.15;23.02;;;;;;;;;;5113628;27;20691;-64
2022/12/02 04:42:49;;;;;;;59.33;23.10;;;;;;;;;;5114949;27;20074;-64
2022/12/02 04:45:16;;;;;;;55.08;22.35;;;;;;;;;;5119855;27;20056;-64
2022/12/02 04:47:43;;;;;;;57.03;22.52;;;;;;;;;;5122210;27;20374;-64
2022/12/02 04:50:11;;;;;;;53.75;22.75;;;;;;;;;;5128011;27;20051;-64
2022/12/02 04:52:38;;;;;;;58.90;22.92;;;;;;;;;;5113309;27;20435;-63
2022/12/02 04:55:06;;;;;;;56.08;22.92;;;;;;;;;;5130656;27;20054;-64
2022/12/02 04:57:33;;;;;;;55.78;22.95;;;;;;;;;;5122731;27;20058;-63
2022/12/02 05:00:02;;;;;;;54.25;22.13;;;;;;;;;;5120454;27;20056;-63
2022/12/02 05:02:29;;;;;;;56.63;22.35;;;;;;;;;;5130573;27;20043;-63
2022/12/02 05:04:56;;;;;;;54.10;22.90;;;;;;;;;;5124840;27;20058;-64
2022/12/02 05:07:24;;;;;;;59.20;22.70;;;;;;;;;;5122854;27;20060;-63
2022/12/02 05:09:51;;;;;;;55.00;23.40;;;;;;;;;;5120765;27;20757;-64
2022/12/02 05:12:18;;;;;;;60.33;23.83;;;;;;;;;;5123339;27;20673;-63
2022/12/02 05:14:45;;;;;;;54.42;22.83;;;;;;;;;;5117494;27;20048;-64
2022/12/02 05:17:14;;;;;;;61.95;23.50;;;;;;;;;;5116012;27;20409;-63
2022/12/02 05:19:42;;;;;;;61.20;23.10;;;;;;;;;;5104247;27;20051;-65
2022/12/02 05:22:09;;;;;;;57.45;22.55;;;;;;;;;;5114597;27;20046;-64
2022/12/02 05:24:37;;;;;;;65.55;23.70;;;;;;;;;;5118770;27;20059;-64
2022/12/02 05:27:04;;;;;;;62.55;23.90;;;;;;;;;;5093954;27;20047;-64
2022/12/02 05:29:31;;;;;;;57.00;22.55;;;;;;;;;;5118621;27;20472;-64
2022/12/02 05:31:58;;;;;;;55.25;22.23;;;;;;;;;;5124465;27;20063;-64
2022/12/02 05:34:27;;;;;;;59.33;22.95;;;;;;;;;;5122307;27;20070;-64
2022/12/02 05:36:54;;;;;;;58.03;22.92;;;;;;;;;;5115057;27;20055;-64
2022/12/02 05:39:21;;;;;;;58.85;23.52;;;;;;;;;;5123375;27;20062;-63
2022/12/02 05:41:49;;;;;;;60.67;23.05;;;;;;;;;;5121382;27;20074;-64
2022/12/02 05:44:19;;;;;;;64.05;23.33;;;;;;;;;;5121679;27;20044;-64
2022/12/02 05:46:47;;;;;;;64.25;23.42;;;;;;;;;;5102686;27;20039;-64
2022/12/02 05:49:17;;;;;;;64.45;23.23;;;;;;;;;;5099158;27;20062;-64
2022/12/02 05:51:45;;;;;;;64.80;23.92;;;;;;;;;;5122071;27;20398;-64
2022/12/02 05:54:17;;;;;;;60.67;22.45;;;;;;;;;;5119318;27;20477;-63
2022/12/02 05:56:44;;;;;;;61.72;23.42;;;;;;;;;;5122715;27;20508;-64
2022/12/02 05:59:13;;;;;;;70.38;24.00;;;;;;;;;;5114448;27;20047;-63
2022/12/02 06:01:41;;;;;;;61.30;22.63;;;;;;;;;;5095984;27;20067;-64
2022/12/02 06:04:12;;;;;;;60.90;23.42;;;;;;;;;;5125021;27;20494;-63
2022/12/02 06:06:39;;;;;;;67.53;23.63;;;;;;;;;;5122051;27;20064;-64
2022/12/02 06:09:12;;;;;;;61.85;22.55;;;;;;;;;;5118648;27;20051;-64
2022/12/02 06:11:39;;;;;;;74.10;24.27;;;;;;;;;;5116032;27;20467;-63
2022/12/02 06:14:10;;;;;;;65.50;22.58;;;;;;;;;;5120968;27;20036;-63
2022/12/02 06:16:37;;;;;;;65.85;23.38;;;;;;;;;;5120802;27;20040;-64
2022/12/02 06:19:09;;;;;;;69.20;24.15;;;;;;;;;;5116693;27;20047;-66
2022/12/02 06:21:37;;;;;;;58.70;22.38;;;;;;;;;;5111730;27;20074;-63
2022/12/02 06:24:09;;;;;;;65.03;22.45;;;;;;;;;;5114132;27;20059;-64
2022/12/02 06:26:38;;;;;;;61.08;22.08;;;;;;;;;;5113823;27;20039;-64
2022/12/02 06:29:06;;;;;;;57.58;22.00;;;;;;;;;;5110682;27;20051;-65
2022/12/02 06:31:36;;;;;;;59.05;23.42;;;;;;;;;;5116862;27;20562;-64
2022/12/02 06:34:11;;;;;;;62.95;21.85;;;;;;;;;;5116795;27;20061;-63
2022/12/02 06:36:38;;;;;;;70.95;24.17;;;;;;;;;;5119148;27;20056;-64
2022/12/02 06:39:13;;;;;;;64.20;22.55;;;;;;;;;;5119839;27;20039;-63
2022/12/02 06:41:42;;;;;;;67.03;23.83;;;;;;;;;;5111850;27;20050;-63
2022/12/02 06:46:55;;;;;;;57.15;22.45;;;;;;;;;;5116887;27;20047;-63
2022/12/02 06:49:23;;;;;;;62.67;22.83;;;;;;;;;;5111610;27;20076;-63
2022/12/02 06:51:53;;;;;;;58.33;22.17;;;;;;;;;;5112093;27;20058;-63
2022/12/02 06:54:21;;;;;;;60.67;20.77;;;;;;;;;;5119324;27;20089;-64
2022/12/02 06:56:51;;;;;;;57.53;20.80;;;;;;;;;;5118470;27;20732;-64
2022/12/02 06:59:19;;;;;;;63.65;22.08;;;;;;;;;;5117330;27;20401;-65
2022/12/02 07:01:47;;;;;;;57.70;21.20;;;;;;;;;;5120102;27;20043;-63
2022/12/02 07:04:30;;;;;;;64.38;21.65;;;;;;;;;;5117535;27;20071;-64
2022/12/02 07:06:59;;;;;;;67.88;22.58;;;;;;;;;;5117612;27;20083;-64
2022/12/02 07:09:30;;;;;;;70.32;23.42;;;;;;;;;;5117188;27;20044;-64
2022/12/02 07:12:00;;;;;;;59.15;21.65;;;;;;;;;;5115291;27;20051;-64
2022/12/02 07:14:33;;;;;;;62.00;22.83;;;;;;;;;;5126920;27;20039;-64
2022/12/02 07:17:02;;;;;;;63.63;23.38;;;;;;;;;;5120924;27;20039;-63
2022/12/02 07:19:36;;;;;;;72.00;24.15;;;;;;;;;;5119644;27;20044;-64
2022/12/02 07:22:04;;;;;;;79.93;24.10;;;;;;;;;;5117387;27;20143;-63
2022/12/02 07:24:32;;;;;;;68.90;24.10;;;;;;;;;;5119092;27;20096;-63
2022/12/02 07:27:00;;;;;;;67.60;23.83;;;;;;;;;;5112746;27;20055;-64
2022/12/02 07:29:29;;;;;;;76.28;24.92;;;;;;;;;;5111273;27;20051;-64
2022/12/02 07:31:57;;;;;;;74.07;24.55;;;;;;;;;;5101933;27;20052;-64
2022/12/02 07:34:24;;;;;;;68.22;23.88;;;;;;;;;;5110364;27;20043;-64
2022/12/02 07:36:51;;;;;;;74.88;25.05;;;;;;;;;;5115015;27;20051;-63
2022/12/02 07:39:18;;;;;;;77.43;25.40;;;;;;;;;;5108273;27;20047;-64
2022/12/02 07:41:45;;;;;;;68.78;23.55;;;;;;;;;;5116259;27;20410;-63
2022/12/02 07:44:14;;;;;;;55.92;22.38;;;;;;;;;;5114928;27;20058;-64
2022/12/02 07:46:41;;;;;;;58.22;21.33;;;;;;;;;;5122093;27;20043;-64
2022/12/02 07:49:08;;;;;;;61.70;21.52;;;;;;;;;;5113861;27;20446;-64
2022/12/02 07:51:36;;;;;;;60.13;21.23;;;;;;;;;;5107559;27;20489;-64
2022/12/02 07:54:03;;;;;;;57.88;21.77;;;;;;;;;;5112403;27;20051;-63
2022/12/02 07:56:30;;;;;;;68.55;23.35;;;;;;;;;;5113030;27;20067;-64
2022/12/02 07:58:59;;;;;;;75.43;24.45;;;;;;;;;;5119092;27;20111;-64
2022/12/02 08:01:27;;;;;;;62.38;22.52;;;;;;;;;;5112302;27;20039;-63
2022/12/02 08:03:55;;;;;;;62.13;22.50;;;;;;;;;;5108740;27;20055;-64
2022/12/02 08:06:22;;;;;;;69.10;24.83;;;;;;;;;;5111091;27;20047;-62
2022/12/02 08:08:49;;;;;;;71.57;23.40;;;;;;;;;;5109411;27;20047;-64
2022/12/02 08:11:16;;;;;;;72.93;24.33;;;;;;;;;;5121170;27;20532;-64
2022/12/02 08:13:44;;;;;;;63.10;22.23;;;;;;;;;;5094086;27;21297;-64
2022/12/02 08:16:11;;;;;;;57.63;21.45;;;;;;;;;;5119315;27;20055;-63
2022/12/02 08:18:39;;;;;;;64.28;20.52;;;;;;;;;;5112980;27;20494;-64
2022/12/02 08:21:07;;;;;;;60.35;21.35;;;;;;;;;;5111157;27;20043;-64
2022/12/02 08:23:34;;;;;;;54.78;19.35;;;;;;;;;;5112132;27;20088;-64
2022/12/02 08:26:01;;;;;;;51.65;18.50;;;;;;;;;;5118045;27;20048;-65
2022/12/02 08:28:28;;;;;;;43.75;16.42;;;;;;;;;;5117797;27;20394;-63
2022/12/02 08:30:55;;;;;;;43.42;16.10;;;;;;;;;;5121177;27;20066;-66
2022/12/02 08:33:24;;;;;;;39.40;16.38;;;;;;;;;;5099448;27;20086;-64
2022/12/02 08:35:52;;;;;;;51.00;17.83;;;;;;;;;;5118301;27;20046;-64
2022/12/02 08:38:20;;;;;;;46.72;17.05;;;;;;;;;;5112782;27;20050;-63
2022/12/02 08:40:47;;;;;;;45.30;17.05;;;;;;;;;;5118474;27;20044;-66
2022/12/02 08:43:14;;;;;;;39.70;15.82;;;;;;;;;;5116139;27;20109;-64
2022/12/02 08:45:41;;;;;;;35.92;15.00;;;;;;;;;;5119841;27;20701;-65
2022/12/02 08:48:09;;;;;;;41.90;16.20;;;;;;;;;;5117539;27;20054;-63
2022/12/02 08:50:36;;;;;;;36.97;15.02;;;;;;;;;;5114602;27;20469;-64
2022/12/02 08:53:04;;;;;;;40.45;15.65;;;;;;;;;;5121303;27;20055;-63
2022/12/02 08:55:32;;;;;;;43.13;16.42;;;;;;;;;;5122884;27;20047;-65
2022/12/02 08:57:59;;;;;;;46.85;17.27;;;;;;;;;;5126632;27;20450;-64
2022/12/02 09:00:26;;;;;;;46.33;17.95;;;;;;;;;;5121438;27;20052;-64
2022/12/02 09:02:53;;;;;;;53.17;19.40;;;;;;;;;;5124124;27;20047;-63
2022/12/02 09:05:21;;;;;;;49.67;18.98;;;;;;;;;;5113144;27;20060;-63
2022/12/02 09:07:48;;;;;;;52.95;20.45;;;;;;;;;;5127965;27;20697;-63
2022/12/02 09:10:17;;;;;;;49.08;20.10;;;;;;;;;;5117361;27;20052;-63
2022/12/02 09:12:44;;;;;;;52.85;19.73;;;;;;;;;;5124202;27;20058;-64
2022/12/02 09:15:12;;;;;;;46.65;18.35;;;;;;;;;;5123782;27;20067;-63
2022/12/02 09:17:39;;;;;;;42.78;18.00;;;;;;;;;;5116944;27;20046;-63
2022/12/02 09:20:07;;;;;;;39.25;17.35;;;;;;;;;;5114902;27;20048;-63
2022/12/02 09:22:34;;;;;;;38.45;17.23;;;;;;;;;;5117519;27;20836;-63
2022/12/02 09:25:01;;;;;;;42.05;17.33;;;;;;;;;;5118731;27;20044;-63
2022/12/02 09:27:30;;;;;;;37.53;16.73;;;;;;;;;;5117145;27;20039;-64
2022/12/02 09:29:57;;;;;;;34.13;14.75;;;;;;;;;;5117372;27;20067;-63
2022/12/02 09:32:24;;;;;;;32.47;13.57;;;;;;;;;;5119914;27;20050;-64
2022/12/02 09:34:52;;;;;;;31.80;15.00;;;;;;;;;;5099443;27;20051;-64
2022/12/02 09:37:19;;;;;;;32.08;14.20;;;;;;;;;;5110354;27;20039;-64
2022/12/02 09:39:47;;;;;;;33.92;15.10;;;;;;;;;;5117977;27;20513;-63
2022/12/02 09:42:15;;;;;;;35.45;15.98;;;;;;;;;;5126237;27;20051;-63
2022/12/02 09:44:44;;;;;;;37.65;17.08;;;;;;;;;;5115947;27;20484;-64
2022/12/02 09:47:11;;;;;;;38.88;18.08;;;;;;;;;;5120907;27;20066;-64
2022/12/02 09:49:39;;;;;;;34.10;16.20;;;;;;;;;;5124251;27;20051;-63
2022/12/02 09:52:07;;;;;;;31.30;14.45;;;;;;;;;;5122488;27;20050;-64
2022/12/02 09:54:35;;;;;;;33.25;14.55;;;;;;;;;;5118488;27;20081;-66
2022/12/02 09:57:03;;;;;;;34.30;16.08;;;;;;;;;;5115539;27;20057;-65
2022/12/02 09:59:30;;;;;;;34.88;15.75;;;;;;;;;;5118541;27;20059;-66
2022/12/02 10:01:59;;;;;;;33.05;14.82;;;;;;;;;;5126192;27;20043;-64
2022/12/02 10:04:26;;;;;;;30.70;13.43;;;;;;;;;;5113441;27;20054;-62
2022/12/02 10:06:54;;;;;;;24.05;11.80;;;;;;;;;;5114656;27;20039;-64
2022/12/02 10:09:24;;;;;;;24.80;11.32;;;;;;;;;;5120991;27;20583;-64
2022/12/02 10:11:51;;;;;;;24.10;11.35;;;;;;;;;;5114350;27;20059;-64
2022/12/02 10:14:19;;;;;;;24.73;10.82;;;;;;;;;;5113363;27;20074;-63
2022/12/02 10:16:46;;;;;;;24.20;11.55;;;;;;;;;;5119330;27;20543;-63
2022/12/02 10:19:17;;;;;;;27.52;12.25;;;;;;;;;;5115407;27;20502;-65
2022/12/02 10:21:44;;;;;;;27.27;12.77;;;;;;;;;;5115853;27;20051;-65
2022/12/02 10:24:12;;;;;;;28.65;12.60;;;;;;;;;;5117235;27;20058;-64
2022/12/02 10:26:43;;;;;;;28.63;12.55;;;;;;;;;;5116102;27;20058;-63
2022/12/02 10:29:15;;;;;;;29.67;14.05;;;;;;;;;;5113061;27;20523;-64
2022/12/02 10:31:53;;;;;;;32.17;13.77;;;;;;;;;;5114934;27;20079;-63
2022/12/02 10:34:22;;;;;;;27.10;13.30;;;;;;;;;;5117724;27;20047;-65
2022/12/02 10:36:49;;;;;;;28.77;13.20;;;;;;;;;;5113102;27;20094;-63
2022/12/02 10:39:18;;;;;;;28.35;14.27;;;;;;;;;;5117978;27;20055;-64
2022/12/02 10:41:46;;;;;;;28.58;13.40;;;;;;;;;;5122605;27;20485;-64
2022/12/02 10:44:14;;;;;;;24.75;13.15;;;;;;;;;;5114521;27;20051;-64
2022/12/02 10:46:42;;;;;;;25.38;12.68;;;;;;;;;;5114570;27;20046;-64
2022/12/02 10:49:16;;;;;;;29.25;13.20;;;;;;;;;;5099429;27;20161;-64
2022/12/02 10:51:45;;;;;;;27.02;13.25;;;;;;;;;;5109488;27;20560;-64
2022/12/02 10:54:18;;;;;;;26.58;13.30;;;;;;;;;;5121446;27;20047;-64
2022/12/02 10:56:45;;;;;;;25.25;12.80;;;;;;;;;;5127436;27;20092;-64
2022/12/02 10:59:14;;;;;;;23.90;11.15;;;;;;;;;;5114683;27;20043;-64
2022/12/02 11:01:42;;;;;;;23.83;12.30;;;;;;;;;;5123920;27;20062;-63
2022/12/02 11:04:10;;;;;;;23.08;11.88;;;;;;;;;;5130128;27;20074;-64
2022/12/02 11:06:37;;;;;;;22.80;12.38;;;;;;;;;;5136568;27;20627;-66
2022/12/02 11:09:06;;;;;;;25.60;12.70;;;;;;;;;;5134026;27;20438;-64
2022/12/02 11:11:40;;;;;;;26.20;12.68;;;;;;;;;;5123218;27;20055;-66
2022/12/02 11:14:11;;;;;;;28.73;13.10;;;;;;;;;;5117867;27;20083;-63
2022/12/02 11:16:56;;;;;;;26.80;13.40;;;;;;;;;;5096276;27;20047;-63
2022/12/02 11:19:25;;;;;;;24.38;12.95;;;;;;;;;;5116672;27;20050;-64
2022/12/02 11:21:52;;;;;;;25.77;14.23;;;;;;;;;;5119508;27;20051;-63
2022/12/02 11:24:37;;;;;;;24.33;13.50;;;;;;;;;;5118659;27;20039;-64
2022/12/02 11:27:09;;;;;;;27.20;14.07;;;;;;;;;;5111492;27;20043;-64
2022/12/02 11:29:37;;;;;;;26.60;14.98;;;;;;;;;;5115826;27;20063;-64
2022/12/02 11:32:16;;;;;;;31.10;16.60;;;;;;;;;;5102335;27;20047;-63
2022/12/02 11:34:45;;;;;;;26.95;15.40;;;;;;;;;;5117326;27;20051;-64
2022/12/02 11:37:32;;;;;;;31.98;16.77;;;;;;;;;;5123446;27;21468;-66
2022/12/02 11:40:01;;;;;;;32.08;16.27;;;;;;;;;;5116154;27;20074;-63
2022/12/02 11:42:29;;;;;;;32.08;17.45;;;;;;;;;;5119543;27;20059;-64
2022/12/02 11:45:11;;;;;;;33.40;18.00;;;;;;;;;;5117342;27;20445;-65
2022/12/02 11:47:39;;;;;;;37.85;19.58;;;;;;;;;;5112436;27;20036;-63
2022/12/02 11:50:21;;;;;;;36.38;18.85;;;;;;;;;;5122043;27;20038;-63
2022/12/02 11:52:51;;;;;;;36.33;19.48;;;;;;;;;;5119299;27;20047;-63
2022/12/02 11:55:21;;;;;;;35.88;19.88;;;;;;;;;;5118511;27;20096;-64
2022/12/02 11:57:49;;;;;;;39.25;20.40;;;;;;;;;;5119410;27;20047;-64
2022/12/02 12:00:28;;;;;;;41.80;22.25;;;;;;;;;;5111959;27;20469;-63
2022/12/02 12:03:12;;;;;;;38.70;22.63;;;;;;;;;;5124402;27;20048;-64
2022/12/02 12:05:39;;;;;;;41.38;21.52;;;;;;;;;;5115301;27;20051;-63
2022/12/02 12:08:07;;;;;;;41.92;22.13;;;;;;;;;;5122726;27;20036;-63
2022/12/02 12:10:36;;;;;;;42.55;23.38;;;;;;;;;;5125021;27;21193;-64
2022/12/02 12:13:14;;;;;;;46.05;23.33;;;;;;;;;;5117965;27;20063;-64
2022/12/02 12:15:49;;;;;;;40.95;22.83;;;;;;;;;;5126667;27;20057;-64
2022/12/02 12:18:31;;;;;;;45.75;23.65;;;;;;;;;;5121269;27;20055;-64
2022/12/02 12:20:58;;;;;;;43.17;22.40;;;;;;;;;;5116448;27;20479;-64
2022/12/02 12:23:29;;;;;;;45.13;24.48;;;;;;;;;;5117461;27;20047;-64
2022/12/02 12:25:58;;;;;;;40.50;22.90;;;;;;;;;;5117859;27;20051;-65
2022/12/02 12:28:26;;;;;;;48.53;24.30;;;;;;;;;;5117808;27;20362;-63
2022/12/02 12:30:53;;;;;;;44.58;22.63;;;;;;;;;;5119209;27;20061;-64
2022/12/02 12:33:21;;;;;;;44.78;23.95;;;;;;;;;;5112195;27;20051;-64
2022/12/02 12:35:48;;;;;;;45.30;23.58;;;;;;;;;;5120242;27;20374;-65
2022/12/02 12:38:15;;;;;;;43.70;23.42;;;;;;;;;;5116349;27;20043;-64
2022/12/02 12:40:42;;;;;;;41.63;22.38;;;;;;;;;;5116198;27;20055;-64
2022/12/02 12:43:11;;;;;;;40.63;21.95;;;;;;;;;;5119513;27;20113;-63
2022/12/02 12:45:38;;;;;;;40.65;23.08;;;;;;;;;;5117158;27;20524;-66
2022/12/02 12:48:05;;;;;;;41.20;22.73;;;;;;;;;;5109415;27;20050;-66
2022/12/02 12:50:33;;;;;;;45.10;23.73;;;;;;;;;;5118461;27;20470;-65
2022/12/02 12:53:00;;;;;;;41.20;22.83;;;;;;;;;;5115866;27;20059;-65
2022/12/02 12:55:27;;;;;;;39.17;21.65;;;;;;;;;;5111409;27;20059;-65
2022/12/02 12:57:54;;;;;;;39.90;21.38;;;;;;;;;;5112087;27;20046;-65
2022/12/02 13:00:23;;;;;;;38.22;22.17;;;;;;;;;;5115431;27;20065;-65
2022/12/02 13:02:50;;;;;;;41.25;22.30;;;;;;;;;;5116994;27;20168;-66
2022/12/02 13:05:18;;;;;;;37.67;20.52;;;;;;;;;;5109144;27;20055;-65
2022/12/02 13:07:45;;;;;;;34.92;20.10;;;;;;;;;;5120462;27;20708;-65
2022/12/02 13:10:12;;;;;;;37.25;20.08;;;;;;;;;;5124546;27;20052;-65
2022/12/02 13:12:40;;;;;;;38.78;20.58;;;;;;;;;;5127783;27;20111;-65
2022/12/02 13:15:07;;;;;;;35.80;19.75;;;;;;;;;;5125615;27;20100;-65
2022/12/02 13:17:36;;;;;;;31.50;17.98;;;;;;;;;;5121132;27;20039;-65
2022/12/02 13:20:03;;;;;;;34.28;18.67;;;;;;;;;;5123691;27;20044;-66
2022/12/02 13:22:30;;;;;;;30.88;17.30;;;;;;;;;;5118139;27;20101;-65
2022/12/02 13:24:58;;;;;;;31.73;17.88;;;;;;;;;;5099248;27;20051;-65
2022/12/02 13:27:25;;;;;;;32.50;16.83;;;;;;;;;;5119080;27;20047;-65
2022/12/02 13:29:52;;;;;;;29.75;16.17;;;;;;;;;;5127145;27;20054;-66
2022/12/02 13:32:19;;;;;;;29.92;16.50;;;;;;;;;;5114060;27;20058;-65
2022/12/02 13:34:48;;;;;;;28.92;16.17;;;;;;;;;;5120209;27;20039;-65
2022/12/02 13:37:15;;;;;;;31.58;17.83;;;;;;;;;;5113743;27;20040;-66
2022/12/02 13:39:42;;;;;;;31.33;17.05;;;;;;;;;;5116937;27;20059;-65
2022/12/02 13:42:10;;;;;;;31.60;16.83;;;;;;;;;;5118423;27;20058;-65
2022/12/02 13:44:37;;;;;;;30.77;17.52;;;;;;;;;;5114799;27;20545;-65
2022/12/02 13:47:04;;;;;;;37.10;17.92;;;;;;;;;;5127776;27;20043;-65
2022/12/02 13:49:32;;;;;;;30.70;16.88;;;;;;;;;;5128486;27;20730;-65
2022/12/02 13:52:00;;;;;;;37.25;18.02;;;;;;;;;;5127864;27;20062;-66
2022/12/02 13:54:28;;;;;;;33.75;17.00;;;;;;;;;;5117470;27;20043;-65
2022/12/02 13:56:55;;;;;;;30.83;16.35;;;;;;;;;;5116703;27;20052;-65
2022/12/02 13:59:22;;;;;;;30.35;16.90;;;;;;;;;;5123185;27;20051;-65
2022/12/02 14:01:49;;;;;;;33.10;17.23;;;;;;;;;;5115284;27;20438;-66
2022/12/02 14:04:17;;;;;;;33.13;16.55;;;;;;;;;;5123667;27;20066;-65
2022/12/02 14:06:44;;;;;;;34.90;17.80;;;;;;;;;;5126692;27;20072;-65
2022/12/02 14:09:13;;;;;;;33.08;17.45;;;;;;;;;;5126339;27;20058;-65
2022/12/02 14:11:40;;;;;;;34.80;17.73;;;;;;;;;;5102698;27;20638;-66
2022/12/02 14:14:07;;;;;;;38.58;17.73;;;;;;;;;;5112972;27;20164;-66
2022/12/02 14:16:34;;;;;;;35.88;18.45;;;;;;;;;;5117700;27;20490;-65
2022/12/02 14:19:02;;;;;;;34.42;17.33;;;;;;;;;;5114212;27;20486;-65
2022/12/02 14:21:29;;;;;;;36.15;17.77;;;;;;;;;;5128636;27;21183;-65
2022/12/02 14:23:56;;;;;;;33.33;17.73;;;;;;;;;;5125364;27;20057;-65
2022/12/02 14:26:25;;;;;;;37.55;19.55;;;;;;;;;;5112672;27;20040;-66
2022/12/02 14:28:52;;;;;;;37.33;17.63;;;;;;;;;;5126748;27;20043;-65
2022/12/02 14:31:19;;;;;;;36.75;19.55;;;;;;;;;;5119151;27;20058;-66